»·PEaware :: UAL522 KPDX-KSLC

UAL522 :: KPDX-KSLC

FLIGHT INFORMATION

Flight Status: Arrived
Operator:
United Airlines
More flights by this operator :: More flights under this callsign
Pilot: Anonymous 15267 (15267)
Aircraft: BOEING 737-200
(B732)
More flights by this aircraft type
Origin: KPDX Portland Intl
United States
Destination: KSLC Salt Lake City Intl
United States
More flights between these airports :: More routes between these airports
Route: +PTLD1 IMB J15 BOI BYI BEARR5
File this flight plan on PilotEdge
Remarks: / W
Altitude:
(Current/Filed)
27,000ft
Speed:
(Current/Filed)
400kts
Departed: 19-Jan-18 11:04 AM
Arrived: 19-Jan-18 12:32 PM
Distance/Time
Traveled:
546nm/1:28
Distance/Time
To Go:
Arrived

Flight Plot

Page will automatically refresh every two minutes.

Flight plan parsing failed; only flown route is shown


Map Options




Map Legend


Flown Route
Filed Route
Departure Airport
Arrival Airport
Navaid (VOR, NDB)
Fix

Horizontal Profiles

Position Reports

Time Latitude Longitude Heading Altitude Ground
Speed
19-Jan-18 10:29 45.590664 -122.595490 55 38ft 0kts
19-Jan-18 10:30 45.590664 -122.595490 55 38ft 0kts
19-Jan-18 10:31 45.590664 -122.595490 55 38ft 0kts
19-Jan-18 10:32 45.590664 -122.595490 55 38ft 0kts
19-Jan-18 10:33 45.590664 -122.595490 55 38ft 0kts
19-Jan-18 10:34 45.590664 -122.595490 55 38ft 0kts
19-Jan-18 10:35 45.590664 -122.595490 55 38ft 0kts
19-Jan-18 10:36 45.590664 -122.595490 55 38ft 0kts
19-Jan-18 10:37 45.590664 -122.595490 55 38ft 0kts
19-Jan-18 10:38 45.590664 -122.595490 55 38ft 0kts
19-Jan-18 10:39 45.590664 -122.595490 55 38ft 0kts
19-Jan-18 10:40 45.590664 -122.595490 55 38ft 0kts
19-Jan-18 10:41 45.590664 -122.595490 55 38ft 0kts
19-Jan-18 10:42 45.590664 -122.595490 55 38ft 0kts
19-Jan-18 10:43 45.590664 -122.595490 55 38ft 0kts
19-Jan-18 10:44 45.590664 -122.595490 55 38ft 0kts
19-Jan-18 10:45 45.590664 -122.595490 55 38ft 0kts
19-Jan-18 10:46 45.590664 -122.595490 55 38ft 0kts
19-Jan-18 10:47 45.590664 -122.595490 55 38ft 0kts
19-Jan-18 10:48 45.590664 -122.595490 55 38ft 0kts
19-Jan-18 10:49 45.590664 -122.595490 55 38ft 0kts
19-Jan-18 10:50 45.590664 -122.595490 55 38ft 0kts
19-Jan-18 10:51 45.590664 -122.595490 55 38ft 0kts
19-Jan-18 10:52 45.590664 -122.595490 55 38ft 0kts
19-Jan-18 10:53 45.590664 -122.595490 55 38ft 0kts
19-Jan-18 10:54 45.590664 -122.595490 55 38ft 0kts
19-Jan-18 10:55 45.590664 -122.595490 55 38ft 0kts
19-Jan-18 10:56 45.590664 -122.595490 55 38ft 0kts
19-Jan-18 10:57 45.590664 -122.595490 55 38ft 0kts
19-Jan-18 10:58 45.589990 -122.596010 326 38ft 0kts
19-Jan-18 10:59 45.589990 -122.596010 326 38ft 0kts
19-Jan-18 11:00 45.589990 -122.596010 326 38ft 0kts
19-Jan-18 11:01 45.589990 -122.596010 326 38ft 0kts
19-Jan-18 11:02 45.590003 -122.596022 325 38ft 1kts
19-Jan-18 11:03 45.590839 -122.597940 300 38ft 0kts
19-Jan-18 11:04 45.590167 -122.601573 208 38ft 18kts
19-Jan-18 11:05 45.587949 -122.599784 117 38ft 12kts
19-Jan-18 11:06 45.585742 -122.594115 117 38ft 18kts
19-Jan-18 11:07 45.583168 -122.587534 118 38ft 19kts
19-Jan-18 11:08 45.581785 -122.584040 123 38ft 0kts
19-Jan-18 11:09 45.581785 -122.584040 123 38ft 0kts
19-Jan-18 11:10 45.582163 -122.588235 299 38ft 71kts
19-Jan-18 11:11 45.604137 -122.641169 301 1856ft 192kts
19-Jan-18 11:12 45.634844 -122.708701 297 4083ft 246kts
19-Jan-18 11:13 45.658786 -122.804630 246 6316ft 290kts
19-Jan-18 11:14 45.595540 -122.832768 143 10212ft 265kts
19-Jan-18 11:15 45.559640 -122.724355 114 11441ft 341kts
19-Jan-18 11:16 45.522907 -122.597931 114 13889ft 352kts
19-Jan-18 11:17 45.482233 -122.469755 126 15868ft 365kts
19-Jan-18 11:18 45.436026 -122.340855 95 17751ft 379kts
19-Jan-18 11:19 45.407804 -122.196084 107 19201ft 395kts
19-Jan-18 11:20 45.374421 -122.045741 110 20672ft 405kts
19-Jan-18 11:21 45.334816 -121.894145 112 21972ft 415kts
19-Jan-18 11:22 45.288438 -121.743392 117 23278ft 423kts
19-Jan-18 11:23 45.230587 -121.596497 117 24479ft 432kts
19-Jan-18 11:24 45.179777 -121.440417 114 25531ft 441kts
19-Jan-18 11:25 45.132459 -121.284272 115 26456ft 448kts
19-Jan-18 11:26 45.083305 -121.120959 115 27077ft 460kts
19-Jan-18 11:27 45.032175 -120.950784 115 27080ft 482kts
19-Jan-18 11:28 44.979467 -120.776238 115 27076ft 483kts
19-Jan-18 11:29 44.926732 -120.602799 115 27078ft 481kts
19-Jan-18 11:30 44.873633 -120.432490 116 27027ft 483kts
19-Jan-18 11:31 44.820250 -120.260756 116 27019ft 484kts
19-Jan-18 11:32 44.766298 -120.087767 116 27020ft 484kts
19-Jan-18 11:33 44.712568 -119.915839 116 27021ft 484kts
19-Jan-18 11:34 44.658436 -119.743708 116 27023ft 484kts
19-Jan-18 11:35 44.606713 -119.569296 113 27025ft 486kts
19-Jan-18 11:36 44.556715 -119.394184 114 27027ft 486kts
19-Jan-18 11:37 44.505540 -119.219821 115 27018ft 487kts
19-Jan-18 11:38 44.454261 -119.045401 115 27020ft 487kts
19-Jan-18 11:39 44.402540 -118.870300 115 27022ft 487kts
19-Jan-18 11:40 44.350713 -118.696027 115 27024ft 488kts
19-Jan-18 11:41 44.298564 -118.521887 115 27025ft 488kts
19-Jan-18 11:42 44.246314 -118.348615 116 27013ft 490kts
19-Jan-18 11:43 44.192900 -118.174395 116 26992ft 490kts
19-Jan-18 11:44 44.139581 -118.000118 116 26993ft 490kts
19-Jan-18 11:45 44.086236 -117.826766 116 27048ft 489kts
19-Jan-18 11:46 44.032515 -117.654098 114 27060ft 488kts
19-Jan-18 11:47 43.979109 -117.482345 115 27047ft 484kts
19-Jan-18 11:48 43.925361 -117.311822 122 27039ft 481kts
19-Jan-18 11:49 43.863931 -117.149812 124 27049ft 479kts
19-Jan-18 11:50 43.807210 -116.982351 114 27051ft 487kts
19-Jan-18 11:51 43.757652 -116.809096 119 27025ft 484kts
19-Jan-18 11:52 43.702846 -116.639796 122 27023ft 483kts
19-Jan-18 11:53 43.646578 -116.471386 120 27028ft 484kts
19-Jan-18 11:54 43.590291 -116.303377 121 27018ft 485kts
19-Jan-18 11:55 43.533306 -116.134974 121 27020ft 484kts
19-Jan-18 11:56 43.467548 -115.976504 127 27021ft 478kts
19-Jan-18 11:57 43.401779 -115.817779 126 27022ft 477kts
19-Jan-18 11:58 43.337163 -115.659560 126 27023ft 474kts
19-Jan-18 11:59 43.272929 -115.502719 126 27024ft 472kts
19-Jan-18 12:00 43.208491 -115.346193 127 27025ft 471kts
19-Jan-18 12:01 43.144332 -115.192220 127 27014ft 468kts
19-Jan-18 12:02 43.079685 -115.037015 127 26893ft 469kts
19-Jan-18 12:03 43.015693 -114.882356 132 26870ft 464kts
19-Jan-18 12:04 42.946688 -114.735427 128 26975ft 465kts
19-Jan-18 12:05 42.882394 -114.583973 128 27005ft 469kts
19-Jan-18 12:06 42.816878 -114.428716 127 27005ft 476kts
19-Jan-18 12:07 42.751815 -114.272629 128 26994ft 479kts
19-Jan-18 12:08 42.685842 -114.115730 128 26969ft 477kts
19-Jan-18 12:09 42.620451 -113.960931 128 26967ft 472kts
19-Jan-18 12:10 42.554193 -113.808995 138 26961ft 457kts
19-Jan-18 12:11 42.461944 -113.699745 147 26970ft 442kts
19-Jan-18 12:12 42.373176 -113.584734 145 26966ft 439kts
19-Jan-18 12:13 42.288793 -113.471428 145 26368ft 422kts
19-Jan-18 12:14 42.206101 -113.360684 145 25292ft 416kts
19-Jan-18 12:15 42.126378 -113.254663 146 24557ft 400kts
19-Jan-18 12:16 42.051535 -113.155587 148 23955ft 361kts
19-Jan-18 12:17 41.980793 -113.062516 147 22095ft 356kts
19-Jan-18 12:18 41.911281 -112.970741 146 20587ft 348kts
19-Jan-18 12:19 41.843286 -112.882115 146 19085ft 342kts
19-Jan-18 12:20 41.776110 -112.794080 145 17672ft 337kts
19-Jan-18 12:21 41.707553 -112.713579 150 16331ft 324kts
19-Jan-18 12:22 41.642424 -112.636335 147 15990ft 294kts
19-Jan-18 12:23 41.585045 -112.562724 145 16039ft 292kts
19-Jan-18 12:24 41.525401 -112.485189 144 16041ft 307kts
19-Jan-18 12:25 41.461815 -112.402925 144 15490ft 325kts
19-Jan-18 12:26 41.398026 -112.321110 145 14581ft 318kts
19-Jan-18 12:27 41.335479 -112.241237 144 13435ft 297kts
19-Jan-18 12:28 41.278468 -112.167925 143 12269ft 284kts
19-Jan-18 12:29 41.222584 -112.097384 141 12026ft 271kts
19-Jan-18 12:30 41.173497 -112.042534 142 11022ft 268kts
19-Jan-18 12:31 41.096434 -112.012183 175 9899ft 245kts
19-Jan-18 12:32 41.029866 -112.003697 175 8767ft 235kts
19-Jan-18 12:33 40.977572 -111.997377 174 7643ft 217kts
19-Jan-18 12:34 40.921887 -111.990293 168 6542ft 189kts
19-Jan-18 12:35 40.871621 -111.984689 172 5513ft 148kts
19-Jan-18 12:36 40.837614 -111.980611 175 4918ft 145kts
19-Jan-18 12:37 40.800074 -111.975857 182 4236ft 140kts
19-Jan-18 12:38 40.776236 -111.973521 189 4235ft 0kts
19-Jan-18 12:39 40.776236 -111.973521 189 4235ft 0kts
19-Jan-18 12:40 40.788125 -111.977912 268 4236ft 0kts
19-Jan-18 12:41 40.788125 -111.977912 268 4236ft 0kts

Navigation Log

Ident Type
Flight plan parsing failed, navigation log unavailable